createdAt,value
2018-10-19T00:01:44.572Z,12.50
2018-10-19T00:04:18.377Z,12.50
2018-10-19T00:06:52.172Z,12.40
2018-10-19T00:09:25.869Z,12.40
2018-10-19T00:12:00.174Z,12.30
2018-10-19T00:14:33.753Z,12.30
2018-10-19T00:17:08.208Z,12.30
2018-10-19T00:19:42.023Z,12.30
2018-10-19T00:22:15.693Z,12.30
2018-10-19T00:24:49.279Z,12.30
2018-10-19T00:27:22.873Z,12.30
2018-10-19T00:29:56.427Z,12.20
2018-10-19T00:32:30.696Z,12.20
2018-10-19T00:35:05.302Z,12.20
2018-10-19T00:37:38.964Z,12.20
2018-10-19T00:40:12.739Z,12.20
2018-10-19T00:42:46.354Z,12.20
2018-10-19T00:45:20.668Z,12.10
2018-10-19T00:47:54.525Z,12.10
2018-10-19T00:50:28.181Z,12.10
2018-10-19T00:53:01.968Z,12.10
2018-10-19T00:55:35.584Z,12.00
2018-10-19T00:58:09.283Z,12.00
2018-10-19T01:00:42.973Z,12.00
2018-10-19T01:03:16.586Z,12.00
2018-10-19T01:05:50.886Z,11.90
2018-10-19T01:08:24.555Z,11.90
2018-10-19T01:10:58.136Z,11.90
2018-10-19T01:13:31.710Z,11.90
2018-10-19T01:16:05.345Z,11.90
2018-10-19T01:18:39.019Z,11.90
2018-10-19T01:21:12.674Z,11.90
2018-10-19T01:23:46.219Z,11.90
2018-10-19T01:26:19.919Z,11.80
2018-10-19T01:28:53.459Z,11.80
2018-10-19T01:31:27.754Z,11.70
2018-10-19T01:34:02.050Z,11.70
2018-10-19T01:36:35.654Z,11.70
2018-10-19T01:39:09.456Z,11.70
2018-10-19T01:41:42.983Z,11.70
2018-10-19T01:44:16.581Z,11.70
2018-10-19T01:46:51.108Z,11.70
2018-10-19T01:49:24.667Z,11.60
2018-10-19T01:51:58.297Z,11.60
2018-10-19T01:54:31.892Z,11.70
2018-10-19T01:57:05.623Z,11.60
2018-10-19T01:59:39.273Z,11.60
2018-10-19T02:02:12.902Z,11.50
2018-10-19T02:04:46.487Z,11.50
2018-10-19T02:07:20.109Z,11.50
2018-10-19T02:09:53.902Z,11.50
2018-10-19T02:12:27.440Z,11.40
2018-10-19T02:15:01.135Z,11.40
2018-10-19T02:17:34.740Z,11.30
2018-10-19T02:20:08.413Z,11.30
2018-10-19T02:22:42.009Z,11.30
2018-10-19T02:25:15.539Z,11.30
2018-10-19T02:27:49.206Z,11.30
2018-10-19T02:30:22.747Z,11.30
2018-10-19T02:32:56.517Z,11.30
2018-10-19T02:35:30.104Z,11.30
2018-10-19T02:38:03.741Z,11.20
2018-10-19T02:40:37.418Z,11.30
2018-10-19T02:43:11.134Z,11.20
2018-10-19T02:45:45.646Z,11.20
2018-10-19T02:48:19.274Z,11.20
2018-10-19T02:50:52.894Z,11.20
2018-10-19T02:53:27.302Z,11.10
2018-10-19T02:56:01.701Z,11.10
2018-10-19T02:58:36.103Z,11.10
2018-10-19T03:01:10.454Z,11.10
2018-10-19T03:03:44.050Z,11.10
2018-10-19T03:06:17.826Z,11.10
2018-10-19T03:08:52.217Z,11.00
2018-10-19T03:11:25.893Z,11.00
2018-10-19T03:13:59.490Z,11.00
2018-10-19T03:16:33.329Z,11.00
2018-10-19T03:19:07.125Z,11.10
2018-10-19T03:21:40.869Z,11.00
2018-10-19T03:24:14.414Z,11.00
2018-10-19T03:26:48.038Z,11.00
2018-10-19T03:29:21.890Z,11.00
2018-10-19T03:31:55.373Z,10.90
2018-10-19T03:34:29.719Z,10.90
2018-10-19T03:37:04.135Z,10.90
2018-10-19T03:39:37.739Z,10.90
2018-10-19T03:42:11.284Z,10.90
2018-10-19T03:44:44.818Z,10.90
2018-10-19T03:47:18.480Z,10.90
2018-10-19T03:49:52.178Z,10.90
2018-10-19T03:52:25.753Z,10.80
2018-10-19T03:54:59.363Z,10.80
2018-10-19T03:57:32.940Z,10.80
2018-10-19T04:00:06.560Z,10.80
2018-10-19T04:02:40.145Z,10.80
2018-10-19T04:05:13.802Z,10.80
2018-10-19T04:07:48.202Z,10.70
2018-10-19T04:10:21.785Z,10.70
2018-10-19T04:12:55.454Z,10.70
2018-10-19T04:15:28.989Z,10.80
2018-10-19T04:18:03.495Z,10.70
2018-10-19T04:20:37.054Z,10.70
2018-10-19T04:23:11.636Z,10.70
2018-10-19T04:25:45.245Z,10.60
2018-10-19T04:28:18.869Z,10.70
2018-10-19T04:30:52.536Z,10.70
2018-10-19T04:33:26.957Z,10.70
2018-10-19T04:36:00.594Z,10.60
2018-10-19T04:38:34.393Z,10.70
2018-10-19T04:41:08.084Z,10.70
2018-10-19T04:43:41.663Z,10.70
2018-10-19T04:46:15.255Z,10.60
2018-10-19T04:48:48.916Z,10.60
2018-10-19T04:51:22.474Z,10.70
2018-10-19T04:53:56.069Z,10.60
2018-10-19T04:56:29.754Z,10.60
2018-10-19T04:59:03.421Z,10.50
2018-10-19T05:01:37.924Z,10.50
2018-10-19T05:04:11.742Z,10.50
2018-10-19T05:06:45.422Z,10.60
2018-10-19T05:09:19.663Z,10.60
2018-10-19T05:11:53.260Z,10.60
2018-10-19T05:14:27.049Z,10.60
2018-10-19T05:17:00.773Z,10.60
2018-10-19T05:19:34.622Z,10.60
2018-10-19T05:22:08.324Z,11.10
2018-10-19T05:24:42.124Z,11.60
2018-10-19T05:27:15.744Z,11.80
2018-10-19T05:29:49.382Z,11.80
2018-10-19T05:32:22.987Z,12.10
2018-10-19T05:34:56.570Z,12.30
2018-10-19T05:37:30.399Z,12.10
2018-10-19T05:40:04.014Z,12.00
2018-10-19T05:42:37.754Z,11.90
2018-10-19T05:45:11.350Z,11.50
2018-10-19T05:47:45.688Z,11.00
2018-10-19T05:50:19.485Z,10.90
2018-10-19T05:52:53.243Z,10.80
2018-10-19T05:55:26.831Z,10.70
2018-10-19T05:58:02.635Z,10.70
2018-10-19T06:00:36.387Z,10.70
2018-10-19T06:03:09.949Z,10.70
2018-10-19T06:05:44.298Z,10.70
2018-10-19T06:08:18.003Z,10.60
2018-10-19T06:10:51.814Z,10.60
2018-10-19T06:13:25.666Z,10.60
2018-10-19T06:16:00.774Z,10.60
2018-10-19T06:18:34.350Z,10.60
2018-10-19T06:21:08.129Z,10.60
2018-10-19T06:23:42.360Z,10.60
2018-10-19T06:26:16.112Z,10.60
2018-10-19T06:28:49.817Z,10.60
2018-10-19T06:31:23.530Z,10.60
2018-10-19T06:33:58.070Z,10.70
2018-10-19T06:36:31.720Z,10.60
2018-10-19T06:39:05.352Z,10.70
2018-10-19T06:41:39.134Z,10.70
2018-10-19T06:44:12.731Z,10.80
2018-10-19T06:46:46.324Z,10.80
2018-10-19T06:49:19.915Z,10.90
2018-10-19T06:51:53.485Z,10.90
2018-10-19T06:54:27.078Z,11.00
2018-10-19T06:57:00.986Z,11.00
2018-10-19T06:59:34.772Z,11.10
2018-10-19T07:02:08.501Z,11.20
2018-10-19T07:04:41.893Z,11.20
2018-10-19T07:07:15.560Z,11.30
2018-10-19T07:09:49.274Z,11.40
2018-10-19T07:12:22.847Z,11.40
2018-10-19T07:14:57.427Z,11.70
2018-10-19T07:17:31.190Z,11.60
2018-10-19T07:20:04.785Z,11.70
2018-10-19T07:22:38.385Z,11.70
2018-10-19T07:25:11.952Z,11.80
2018-10-19T07:27:46.413Z,11.90
2018-10-19T07:30:20.190Z,11.90
2018-10-19T07:32:53.779Z,11.90
2018-10-19T07:35:27.493Z,12.10
2018-10-19T07:38:01.151Z,12.30
2018-10-19T07:40:34.709Z,12.70
2018-10-19T07:43:08.514Z,13.00
2018-10-19T07:45:42.198Z,13.40
2018-10-19T07:48:15.894Z,13.90
2018-10-19T07:50:49.534Z,14.10
2018-10-19T07:53:23.290Z,14.20
2018-10-19T07:55:57.116Z,14.50
2018-10-19T07:58:30.885Z,15.00
2018-10-19T08:01:04.659Z,15.30
2018-10-19T08:03:38.259Z,15.60
2018-10-19T08:06:11.902Z,15.80
2018-10-19T08:08:45.537Z,15.90
2018-10-19T08:11:19.294Z,16.30
2018-10-19T08:13:52.908Z,16.40
2018-10-19T08:16:26.675Z,16.60
2018-10-19T08:19:00.375Z,17.00
2018-10-19T08:21:34.282Z,17.20
2018-10-19T08:24:08.120Z,17.30
2018-10-19T08:26:41.876Z,17.40
2018-10-19T08:29:15.629Z,17.60
2018-10-19T08:31:49.217Z,17.40
2018-10-19T08:34:22.782Z,17.40
2018-10-19T08:36:56.427Z,17.70
2018-10-19T08:39:30.955Z,18.00
2018-10-19T08:42:04.562Z,17.90
2018-10-19T08:44:38.204Z,18.00
2018-10-19T08:47:11.859Z,18.10
2018-10-19T08:49:46.252Z,18.40
2018-10-19T08:52:19.874Z,18.40
2018-10-19T08:54:53.645Z,18.50
2018-10-19T08:57:27.214Z,18.30
2018-10-19T09:00:00.852Z,18.00
2018-10-19T09:02:34.542Z,18.00
2018-10-19T09:05:08.207Z,18.00
2018-10-19T09:07:41.982Z,18.50
2018-10-19T09:10:15.563Z,18.60
2018-10-19T09:12:49.304Z,18.70
2018-10-19T09:15:23.101Z,19.00
2018-10-19T09:17:56.637Z,19.10
2018-10-19T09:20:31.035Z,19.40
2018-10-19T09:23:04.706Z,19.30
2018-10-19T09:25:38.292Z,19.60
2018-10-19T09:28:12.149Z,19.80
2018-10-19T09:30:45.708Z,19.80
2018-10-19T09:33:19.451Z,19.80
2018-10-19T09:35:53.139Z,19.60
2018-10-19T09:38:27.722Z,19.50
2018-10-19T09:41:01.414Z,19.50
2018-10-19T09:43:35.243Z,19.70
2018-10-19T09:46:09.655Z,19.80
2018-10-19T09:48:43.264Z,19.70
2018-10-19T09:51:17.112Z,20.00
2018-10-19T09:53:50.793Z,20.00
2018-10-19T09:56:24.791Z,19.80
2018-10-19T09:58:58.413Z,19.90
2018-10-19T10:01:32.552Z,20.00
2018-10-19T10:04:06.731Z,19.80
2018-10-19T10:06:40.541Z,19.50
2018-10-19T10:09:14.614Z,20.00
2018-10-19T10:11:48.454Z,20.50
2018-10-19T10:14:22.119Z,20.20
2018-10-19T10:16:56.135Z,20.40
2018-10-19T10:19:35.076Z,20.60
2018-10-19T10:22:09.468Z,20.40
2018-10-19T10:24:45.587Z,20.40
2018-10-19T10:27:19.422Z,20.60
2018-10-19T10:29:53.177Z,20.30
2018-10-19T10:32:27.221Z,20.20
2018-10-19T10:35:01.176Z,20.40
2018-10-19T10:37:35.009Z,20.30
2018-10-19T10:40:09.200Z,20.30
2018-10-19T10:42:43.877Z,20.00
2018-10-19T10:45:22.855Z,20.00
2018-10-19T10:47:56.982Z,20.20
2018-10-19T10:50:30.818Z,20.50
2018-10-19T10:53:04.710Z,20.70
2018-10-19T10:55:38.499Z,20.90
2018-10-19T10:58:13.016Z,19.50
2018-10-19T11:00:49.300Z,19.40
2018-10-19T11:03:23.811Z,19.50
2018-10-19T11:05:57.398Z,19.50
2018-10-19T11:08:30.970Z,19.70
2018-10-19T11:11:04.714Z,19.70
2018-10-19T11:13:38.434Z,19.90
2018-10-19T11:16:13.050Z,19.90
2018-10-19T11:18:46.561Z,19.90
2018-10-19T11:21:21.080Z,20.00
2018-10-19T11:23:55.500Z,19.90
2018-10-19T11:26:29.269Z,19.90
2018-10-19T11:29:02.907Z,20.00
2018-10-19T11:31:36.499Z,20.00
2018-10-19T11:34:10.640Z,20.00
2018-10-19T11:36:44.331Z,19.60
2018-10-19T11:39:18.114Z,19.30
2018-10-19T11:41:51.943Z,19.50
2018-10-19T11:44:26.473Z,19.40
2018-10-19T11:47:00.032Z,19.40
2018-10-19T11:49:34.449Z,19.00
2018-10-19T11:52:08.281Z,18.90
2018-10-19T11:54:41.986Z,18.70
2018-10-19T11:57:16.930Z,18.70
2018-10-19T11:59:50.386Z,18.60
2018-10-19T12:02:24.087Z,18.50
2018-10-19T12:04:57.752Z,18.50
2018-10-19T12:07:31.349Z,18.50
2018-10-19T12:10:05.003Z,18.60
2018-10-19T12:12:38.907Z,18.60
2018-10-19T12:15:13.459Z,18.80
2018-10-19T12:17:47.012Z,18.80
2018-10-19T12:20:21.397Z,19.10
2018-10-19T12:22:55.119Z,19.10
2018-10-19T12:25:28.733Z,19.00
2018-10-19T12:28:02.274Z,18.90
2018-10-19T12:30:36.622Z,19.00
2018-10-19T12:33:10.513Z,19.00
2018-10-19T12:35:44.043Z,19.10
2018-10-19T12:38:17.598Z,19.10
2018-10-19T12:40:51.304Z,18.90
2018-10-19T12:43:24.879Z,18.90
2018-10-19T12:46:10.474Z,19.00
2018-10-19T12:48:44.366Z,19.00
2018-10-19T12:51:18.132Z,19.10
2018-10-19T12:53:52.590Z,19.00
2018-10-19T12:56:26.099Z,19.00
2018-10-19T12:58:59.757Z,19.00
2018-10-19T13:01:33.349Z,19.00
2018-10-19T13:04:07.921Z,19.10
2018-10-19T13:06:42.306Z,19.00
2018-10-19T13:09:15.995Z,19.00
2018-10-19T13:11:49.740Z,19.00
2018-10-19T13:14:23.708Z,19.00
2018-10-19T13:16:57.549Z,19.00
2018-10-19T13:19:31.317Z,19.00
2018-10-19T13:22:05.505Z,19.10
2018-10-19T13:24:39.224Z,19.10
2018-10-19T13:27:15.730Z,19.20
2018-10-19T13:29:50.756Z,19.10
2018-10-19T13:32:28.114Z,19.10
2018-10-19T13:35:05.508Z,19.00
2018-10-19T13:37:40.253Z,18.90
2018-10-19T13:40:14.086Z,19.00
2018-10-19T13:42:47.877Z,19.00
2018-10-19T13:45:21.689Z,19.10
2018-10-19T13:47:55.459Z,19.10
2018-10-19T13:50:29.104Z,19.00
2018-10-19T13:53:02.798Z,19.00
2018-10-19T13:55:36.552Z,19.00
2018-10-19T13:58:10.345Z,19.00
2018-10-19T14:00:45.039Z,19.10
2018-10-19T14:03:18.898Z,19.10
2018-10-19T14:05:52.509Z,19.20
2018-10-19T14:08:26.044Z,19.20
2018-10-19T14:10:59.895Z,19.30
2018-10-19T14:13:33.862Z,19.40
2018-10-19T14:16:07.548Z,19.30
2018-10-19T14:18:41.883Z,19.30
2018-10-19T14:21:15.608Z,19.20
2018-10-19T14:23:49.203Z,19.20
2018-10-19T14:26:23.714Z,19.10
2018-10-19T14:28:57.431Z,19.10
2018-10-19T14:31:31.099Z,19.10
2018-10-19T14:34:04.821Z,19.10
2018-10-19T14:36:38.543Z,19.10
2018-10-19T14:39:12.216Z,19.20
2018-10-19T14:41:46.886Z,19.10
2018-10-19T14:44:20.605Z,19.10
2018-10-19T14:46:54.414Z,19.10
2018-10-19T14:49:28.030Z,19.10
2018-10-19T14:52:01.711Z,19.20
2018-10-19T14:54:35.673Z,19.10
2018-10-19T14:57:09.538Z,19.10
2018-10-19T14:59:43.700Z,19.10
2018-10-19T15:02:18.303Z,19.00
2018-10-19T15:04:51.960Z,19.00
2018-10-19T15:07:25.769Z,19.00
2018-10-19T15:09:59.547Z,19.00
2018-10-19T15:12:32.953Z,19.00
2018-10-19T15:15:06.498Z,19.00
2018-10-19T15:17:40.378Z,19.10
2018-10-19T15:20:14.064Z,19.00
2018-10-19T15:22:47.766Z,19.00
2018-10-19T15:25:21.362Z,19.00
2018-10-19T15:27:54.995Z,18.90
2018-10-19T15:30:28.753Z,18.90
2018-10-19T15:33:02.522Z,18.80
2018-10-19T15:35:36.071Z,18.70
2018-10-19T15:38:09.658Z,18.70
2018-10-19T15:40:43.490Z,18.70
2018-10-19T15:43:17.218Z,18.70
2018-10-19T15:45:50.806Z,18.60
2018-10-19T15:48:25.397Z,18.50
2018-10-19T15:50:59.164Z,18.50
2018-10-19T15:53:32.917Z,18.50
2018-10-19T15:56:06.499Z,18.40
2018-10-19T15:58:40.082Z,18.40
2018-10-19T16:01:13.687Z,18.40
2018-10-19T16:03:47.385Z,18.30
2018-10-19T16:06:20.988Z,18.20
2018-10-19T16:08:54.602Z,18.20
2018-10-19T16:11:28.188Z,18.10
2018-10-19T16:14:01.791Z,18.00
2018-10-19T16:16:36.329Z,17.80
2018-10-19T16:19:10.092Z,17.80
2018-10-19T16:21:43.691Z,17.70
2018-10-19T16:24:17.352Z,17.60
2018-10-19T16:26:50.973Z,17.50
2018-10-19T16:29:25.440Z,17.30
2018-10-19T16:31:59.221Z,17.20
2018-10-19T16:34:32.865Z,17.10
2018-10-19T16:37:06.573Z,17.00
2018-10-19T16:39:40.403Z,16.90
2018-10-19T16:42:14.142Z,16.80
2018-10-19T16:44:48.495Z,16.60
2018-10-19T16:47:22.301Z,16.60
2018-10-19T16:49:56.019Z,16.60
2018-10-19T16:52:29.949Z,16.50
2018-10-19T16:55:04.342Z,16.40
2018-10-19T16:57:37.941Z,16.40
2018-10-19T17:00:11.678Z,16.40
2018-10-19T17:02:45.539Z,16.30
2018-10-19T17:05:19.296Z,16.20
2018-10-19T17:07:52.883Z,16.20
2018-10-19T17:10:26.688Z,16.10
2018-10-19T17:13:00.460Z,16.10
2018-10-19T17:15:34.131Z,16.10
2018-10-19T17:18:07.817Z,16.00
2018-10-19T17:20:41.372Z,15.90
2018-10-19T17:23:16.024Z,15.80
2018-10-19T17:25:49.762Z,15.80
2018-10-19T17:28:23.573Z,15.80
2018-10-19T17:30:58.054Z,15.80
2018-10-19T17:33:31.657Z,15.80
2018-10-19T17:36:05.292Z,15.80
2018-10-19T17:38:38.876Z,15.70
2018-10-19T17:41:12.721Z,15.70
2018-10-19T17:43:46.495Z,15.60
2018-10-19T17:46:20.167Z,15.60
2018-10-19T17:48:54.013Z,15.50
2018-10-19T17:51:27.898Z,15.50
2018-10-19T17:54:01.635Z,15.50
2018-10-19T17:56:35.217Z,15.40
2018-10-19T17:59:09.028Z,15.40
2018-10-19T18:01:42.698Z,15.40
2018-10-19T18:04:16.349Z,15.30
2018-10-19T18:06:49.984Z,15.30
2018-10-19T18:09:23.658Z,15.20
2018-10-19T18:11:57.489Z,15.20
2018-10-19T18:14:32.031Z,15.20
2018-10-19T18:17:05.662Z,15.10
2018-10-19T18:19:39.462Z,15.10
2018-10-19T18:22:13.571Z,15.10
2018-10-19T18:24:47.049Z,15.10
2018-10-19T18:27:20.653Z,15.00
2018-10-19T18:29:54.438Z,15.00
2018-10-19T18:32:28.095Z,15.00
2018-10-19T18:35:02.595Z,14.90
2018-10-19T18:37:36.431Z,14.90
2018-10-19T18:40:10.025Z,14.80
2018-10-19T18:42:43.753Z,14.80
2018-10-19T18:45:17.524Z,14.70
2018-10-19T18:47:51.201Z,14.70
2018-10-19T18:50:25.095Z,14.60
2018-10-19T18:52:59.390Z,14.50
2018-10-19T18:55:33.811Z,14.40
2018-10-19T18:58:07.563Z,14.40
2018-10-19T19:00:41.182Z,14.40
2018-10-19T19:03:14.987Z,14.30
2018-10-19T19:05:49.495Z,14.20
2018-10-19T19:08:23.873Z,14.20
2018-10-19T19:10:57.571Z,14.20
2018-10-19T19:13:31.155Z,14.20
2018-10-19T19:16:05.001Z,14.20
2018-10-19T19:18:38.888Z,14.20
2018-10-19T19:21:12.620Z,14.20
2018-10-19T19:23:46.260Z,14.10
2018-10-19T19:26:20.166Z,14.20
2018-10-19T19:28:53.788Z,14.20
2018-10-19T19:31:28.334Z,14.10
2018-10-19T19:34:19.782Z,14.10
2018-10-19T19:36:54.356Z,13.90
2018-10-19T19:39:28.132Z,13.90
2018-10-19T19:42:18.247Z,13.70
2018-10-19T19:44:51.917Z,13.70
2018-10-19T19:47:25.554Z,13.70
2018-10-19T19:50:00.147Z,13.60
2018-10-19T19:52:33.870Z,13.60
2018-10-19T19:55:07.572Z,13.40
2018-10-19T19:57:41.315Z,13.40
2018-10-19T20:00:14.916Z,13.40
2018-10-19T20:02:48.510Z,13.40
2018-10-19T20:05:22.374Z,13.40
2018-10-19T20:07:56.088Z,13.40
2018-10-19T20:10:29.650Z,13.40
2018-10-19T20:13:03.248Z,13.40
2018-10-19T20:15:37.760Z,13.40
2018-10-19T20:18:11.512Z,13.40
2018-10-19T20:20:45.321Z,13.30
2018-10-19T20:23:18.929Z,13.20
2018-10-19T20:25:52.520Z,13.20
2018-10-19T20:28:27.123Z,13.10
2018-10-19T20:31:01.505Z,13.10
2018-10-19T20:33:35.402Z,13.10
2018-10-19T20:36:09.215Z,13.10
2018-10-19T20:38:42.874Z,13.00
2018-10-19T20:41:16.719Z,13.00
2018-10-19T20:43:50.437Z,12.90
2018-10-19T20:46:24.566Z,12.90
2018-10-19T20:48:58.284Z,12.80
2018-10-19T20:51:31.880Z,12.90
2018-10-19T20:54:11.511Z,12.80
2018-10-19T20:56:45.291Z,12.80
2018-10-19T20:59:19.130Z,12.80
2018-10-19T21:01:52.770Z,12.70
2018-10-19T21:04:26.604Z,12.70
2018-10-19T21:07:00.234Z,12.60
2018-10-19T21:09:33.803Z,12.60
2018-10-19T21:12:07.382Z,12.60
2018-10-19T21:14:40.938Z,12.50
2018-10-19T21:17:14.760Z,12.50
2018-10-19T21:19:48.301Z,12.50
2018-10-19T21:22:21.866Z,12.50
2018-10-19T21:24:55.446Z,12.50
2018-10-19T21:27:29.120Z,12.50
2018-10-19T21:30:02.814Z,12.40
2018-10-19T21:32:36.565Z,12.40
2018-10-19T21:35:10.404Z,12.30
2018-10-19T21:37:44.925Z,12.30
2018-10-19T21:40:18.674Z,12.20
2018-10-19T21:42:52.437Z,12.30
2018-10-19T21:45:26.807Z,12.30
2018-10-19T21:48:00.382Z,12.20
2018-10-19T21:50:33.933Z,12.20
2018-10-19T21:53:07.651Z,12.10
2018-10-19T21:55:41.189Z,12.20
2018-10-19T21:58:14.979Z,12.10
2018-10-19T22:00:49.435Z,12.20
2018-10-19T22:03:23.036Z,12.20
2018-10-19T22:05:57.505Z,12.20
2018-10-19T22:08:31.313Z,12.10
2018-10-19T22:11:05.745Z,12.10
2018-10-19T22:13:40.338Z,12.10
2018-10-19T22:16:14.651Z,12.00
2018-10-19T22:18:48.518Z,12.00
2018-10-19T22:21:22.361Z,11.90
2018-10-19T22:23:56.011Z,11.90
2018-10-19T22:26:29.916Z,11.80
2018-10-19T22:29:03.501Z,11.80
2018-10-19T22:31:37.199Z,11.80
2018-10-19T22:34:10.986Z,11.80
2018-10-19T22:36:44.487Z,11.70
2018-10-19T22:39:18.310Z,11.70
2018-10-19T22:41:51.853Z,11.70
2018-10-19T22:44:25.754Z,11.60
2018-10-19T22:46:59.469Z,11.60
2018-10-19T22:49:33.106Z,11.70
2018-10-19T22:52:07.430Z,11.70
2018-10-19T22:54:41.885Z,11.70
2018-10-19T22:57:15.615Z,11.70
2018-10-19T22:59:49.251Z,11.70
2018-10-19T23:02:22.822Z,11.70
2018-10-19T23:04:56.639Z,11.70
2018-10-19T23:07:30.283Z,11.70
2018-10-19T23:10:04.621Z,11.60
2018-10-19T23:12:38.226Z,11.60
2018-10-19T23:15:11.846Z,11.60
2018-10-19T23:17:45.384Z,11.60
2018-10-19T23:20:18.925Z,11.60
2018-10-19T23:22:52.543Z,11.60
2018-10-19T23:25:26.147Z,11.50
2018-10-19T23:27:59.790Z,11.50
2018-10-19T23:30:33.373Z,11.40
2018-10-19T23:33:07.171Z,11.40
2018-10-19T23:35:40.763Z,11.40
2018-10-19T23:38:14.385Z,11.40
2018-10-19T23:40:48.122Z,11.30
2018-10-19T23:43:21.695Z,11.30
2018-10-19T23:45:55.284Z,11.30
2018-10-19T23:48:28.871Z,11.30
2018-10-19T23:51:02.531Z,11.30
2018-10-19T23:53:37.024Z,11.20
2018-10-19T23:56:11.528Z,11.20
2018-10-19T23:58:45.141Z,11.20
